Bookmark and Share
Track history (hours):
 

Conquistador

More information available from US FCC via Universal Licensing System and Coast Guard Vessel Documentation Center.

Last reported at 2014-Feb-26 07:33 UTC. Time now 2014-Apr-19 19:44 UTC.
Position N 32°40' W 117°14'.
Warning: this ship's position is 52 days out of date.

Length 22 m.

Type: Pleasure craft. MMSI: 367402860.

NotesDate/timePositionNaut miles runAvg speedWind from/ knotsBaromVisibWave heightAir tempDewpointWater temp
2014-Feb-26 07:33N 32°40' W 117°14'5 3.5
2014-Feb-26 06:04N 32°45' W 117°12'0 0.0
2014-Feb-26 00:25N 32°45' W 117°12'2 1.6
2014-Feb-25 23:23N 32°44' W 117°12'0 0.0
2014-Feb-25 20:13N 32°44' W 117°12'0 0.0
2014-Feb-25 18:19N 32°44' W 117°12'0 0.0
2014-Feb-25 17:13N 32°44' W 117°12'0 0.0
2014-Feb-25 16:22N 32°44' W 117°12'0 0.0
2014-Feb-25 14:22N 32°44' W 117°12'0 0.0
2014-Feb-25 13:10N 32°44' W 117°12'0 0.0
2014-Feb-25 12:22N 32°44' W 117°12'0 0.0
2014-Feb-25 11:28N 32°44' W 117°12'0 0.0
2014-Feb-25 10:28N 32°44' W 117°12'0 0.0
2014-Feb-25 09:10N 32°44' W 117°12'0 0.0
2014-Feb-25 04:10N 32°44' W 117°12'0 0.0
2014-Feb-25 03:10N 32°44' W 117°12'0 0.0
2014-Feb-25 01:22N 32°44' W 117°12'0 0.0
2014-Feb-25 00:22N 32°44' W 117°12'0 0.0
2014-Feb-24 23:31N 32°44' W 117°12'0 0.0
2014-Feb-24 22:25N 32°44' W 117°12'0 0.0
2014-Feb-24 20:25N 32°44' W 117°12'0 0.0
2014-Feb-24 19:25N 32°44' W 117°12'2 1.6
2014-Feb-24 18:22N 32°45' W 117°12'2 1.8
2014-Feb-24 17:28N 32°44' W 117°12'0 0.0
2014-Feb-24 16:28N 32°44' W 117°12'0 0.0
2014-Feb-24 15:04N 32°44' W 117°12'0 0.0
2014-Feb-24 14:16N 32°44' W 117°12'0 0.0
2014-Feb-24 13:28N 32°44' W 117°12'0 0.0
2014-Feb-24 12:10N 32°44' W 117°12'0 0.0
2014-Feb-24 11:16N 32°44' W 117°12'0 0.0
2014-Feb-24 10:28N 32°44' W 117°12'0 0.0
2014-Feb-24 09:28N 32°44' W 117°12'0 0.0
2014-Feb-24 08:28N 32°44' W 117°12'0 0.0
2014-Feb-24 07:28N 32°44' W 117°12'0 0.0
2014-Feb-24 06:28N 32°44' W 117°12'0 0.0
2014-Feb-24 05:22N 32°44' W 117°12'2 0.8
2014-Feb-24 03:22N 32°45' W 117°12'2 1.9
2014-Feb-24 02:31N 32°44' W 117°12'0 0.0
2014-Feb-24 01:31N 32°44' W 117°12'2 1.6
2014-Feb-24 00:31N 32°45' W 117°12'2 1.4
2014-Feb-23 23:22N 32°44' W 117°12'0 0.0
2014-Feb-23 22:31N 32°44' W 117°12'0 0.0
2014-Feb-23 21:31N 32°44' W 117°12'0 0.1
2014-Feb-23 18:33N 32°44' W 117°13'1 0.2
2014-Feb-23 15:32N 32°43' W 117°14'1 0.2
2014-Feb-23 10:33N 32°44' W 117°12'0 0.0
2014-Feb-23 09:30N 32°44' W 117°12'0 0.0
2014-Feb-23 08:33N 32°44' W 117°12'0 0.0
2014-Feb-23 07:27N 32°44' W 117°12'0 0.0
2014-Feb-23 06:03N 32°44' W 117°12'0 0.0
2014-Feb-23 05:15N 32°44' W 117°12'0 0.0
2014-Feb-23 04:33N 32°44' W 117°12'0 0.0
2014-Feb-23 03:21N 32°44' W 117°12'0 0.0
2014-Feb-23 02:06N 32°44' W 117°12'0 0.0
2014-Feb-23 01:30N 32°44' W 117°12'0 0.0
2014-Feb-23 00:27N 32°44' W 117°12'0 0.0
2014-Feb-22 23:33N 32°44' W 117°12'0 0.0
2014-Feb-22 22:12N 32°44' W 117°12'1 1.0
2014-Feb-22 21:16N 32°43' W 117°14'0 0.0
2014-Feb-22 20:19N 32°43' W 117°14'1 0.1
2014-Feb-22 14:30N 32°43' W 117°13'0 0.5
2014-Feb-22 13:33N 32°44' W 117°12'0 0.0
2014-Feb-22 12:21N 32°44' W 117°12'0 0.0
2014-Feb-22 11:09N 32°44' W 117°12'0 0.0
2014-Feb-22 08:12N 32°44' W 117°12'0 0.0
2014-Feb-22 07:27N 32°44' W 117°12'0 0.0
2014-Feb-22 06:18N 32°44' W 117°12'0 0.0
2014-Feb-22 03:30N 32°44' W 117°12'0 0.0
2014-Feb-22 02:21N 32°44' W 117°12'0 0.0
2014-Feb-22 01:33N 32°44' W 117°12'0 0.0
2014-Feb-22 00:21N 32°44' W 117°12'0 0.0
2014-Feb-21 23:29N 32°44' W 117°12'0 0.0
2014-Feb-21 22:15N 32°44' W 117°12'0 0.0
2014-Feb-21 21:33N 32°44' W 117°12'0 0.0
2014-Feb-21 20:33N 32°44' W 117°12'0 0.0
2014-Feb-21 19:30N 32°44' W 117°12'0 0.0
2014-Feb-21 18:21N 32°44' W 117°12'0 0.0
2014-Feb-21 16:30N 32°44' W 117°12'0 0.0
2014-Feb-21 14:06N 32°44' W 117°12'0 0.0
2014-Feb-21 13:12N 32°44' W 117°12'0 0.0
2014-Feb-21 11:12N 32°44' W 117°12'0 0.0
2014-Feb-21 10:24N 32°44' W 117°12'0 0.0
2014-Feb-21 09:33N 32°44' W 117°12'0 0.0
2014-Feb-21 08:30N 32°44' W 117°12'0 0.0
2014-Feb-21 06:30N 32°44' W 117°12'0 0.0
2014-Feb-21 05:18N 32°44' W 117°12'0 0.0
2014-Feb-21 02:06N 32°44' W 117°12'0 0.0
2014-Feb-21 01:33N 32°44' W 117°12'0 0.0
2014-Feb-21 00:33N 32°44' W 117°12'0 0.0
2014-Feb-20 23:27N 32°44' W 117°12'0 0.0
2014-Feb-20 22:33N 32°44' W 117°12'0 0.0
2014-Feb-20 21:24N 32°44' W 117°12'0 0.0
2014-Feb-20 20:33N 32°44' W 117°12'0 0.0
2014-Feb-20 19:30N 32°44' W 117°12'0 0.0
2014-Feb-20 18:33N 32°44' W 117°12'0 0.0
2014-Feb-20 17:33N 32°44' W 117°12'0 0.0
2014-Feb-20 15:33N 32°44' W 117°12'0 0.0
2014-Feb-20 14:15N 32°44' W 117°12'0 0.0
2014-Feb-20 13:33N 32°44' W 117°12'0 0.0
2014-Feb-20 12:21N 32°44' W 117°12'0 0.0
2014-Feb-20 11:33N 32°44' W 117°12'0 0.0
2014-Feb-20 10:15N 32°44' W 117°12'0 0.0
2014-Feb-20 09:27N 32°44' W 117°12'0 0.0
2014-Feb-20 08:33N 32°44' W 117°12'0 0.0
2014-Feb-20 07:27N 32°44' W 117°12'0 0.0
2014-Feb-20 06:33N 32°44' W 117°12'0 0.0
2014-Feb-20 04:18N 32°44' W 117°12'0 0.0
2014-Feb-20 03:27N 32°44' W 117°12'0 0.0
2014-Feb-20 02:15N 32°44' W 117°12'0 0.0
2014-Feb-20 01:33N 32°44' W 117°12'0 0.0
2014-Feb-20 00:30N 32°44' W 117°12'0 0.0
2014-Feb-19 23:33N 32°44' W 117°12'0 0.0
2014-Feb-19 22:26N 32°44' W 117°12'0 0.0
2014-Feb-19 21:32N 32°44' W 117°12'0 0.0
2014-Feb-19 20:29N 32°44' W 117°12'0 0.0
2014-Feb-19 19:32N 32°44' W 117°12'0 0.0
2014-Feb-19 17:32N 32°44' W 117°12'0 0.0
2014-Feb-19 16:33N 32°44' W 117°12'0 0.0
2014-Feb-19 15:32N 32°44' W 117°12'0 0.0
2014-Feb-19 14:29N 32°44' W 117°12'0 0.0
2014-Feb-19 13:20N 32°44' W 117°12'0 0.0
2014-Feb-19 10:26N 32°44' W 117°12'0 0.0
2014-Feb-19 09:08N 32°44' W 117°12'0 0.0
2014-Feb-19 08:23N 32°44' W 117°12'0 0.0
2014-Feb-19 07:20N 32°44' W 117°12'0 0.0
2014-Feb-19 05:32N 32°44' W 117°12'0 0.0
2014-Feb-19 04:32N 32°44' W 117°12'0 0.0
2014-Feb-19 03:32N 32°44' W 117°12'0 0.0
2014-Feb-19 02:26N 32°44' W 117°12'0 0.0
2014-Feb-19 01:32N 32°44' W 117°12'0 0.0
2014-Feb-19 00:29N 32°44' W 117°12'0 0.0
2014-Feb-18 23:23N 32°44' W 117°12'0 0.0
2014-Feb-18 22:32N 32°44' W 117°12'0 0.0
2014-Feb-18 21:32N 32°44' W 117°12'0 0.0
2014-Feb-18 19:08N 32°44' W 117°12'0 0.0
2014-Feb-18 17:32N 32°44' W 117°12'0 0.0
2014-Feb-18 15:32N 32°44' W 117°12'0 0.0
2014-Feb-18 14:32N 32°44' W 117°12'0 0.0
2014-Feb-18 13:32N 32°44' W 117°12'0 0.0
2014-Feb-18 12:32N 32°44' W 117°12'0 0.0
2014-Feb-18 11:08N 32°44' W 117°12'0 0.0
2014-Feb-18 10:14N 32°44' W 117°12'0 0.0
2014-Feb-18 09:11N 32°44' W 117°12'0 0.0
2014-Feb-18 08:14N 32°44' W 117°12'0 0.0
2014-Feb-18 07:26N 32°44' W 117°12'0 0.0
2014-Feb-18 06:32N 32°44' W 117°12'0 0.0
2014-Feb-18 05:20N 32°44' W 117°12'0 0.0
2014-Feb-18 04:20N 32°44' W 117°12'0 0.0
2014-Feb-18 02:14N 32°44' W 117°12'0 0.0
2014-Feb-18 01:20N 32°44' W 117°12'0 0.0
2014-Feb-18 00:32N 32°44' W 117°12'0 0.0
2014-Feb-17 23:32N 32°44' W 117°12'0 0.0
2014-Feb-17 22:32N 32°44' W 117°12'0 0.0
2014-Feb-17 21:32N 32°44' W 117°12'  

Dump ship's entire track history

sailing weather and tide predictions

Conquistador — WDE8212 — position and weather